sensor_id;sensor_type;location;lat;lon;timestamp;pressure;altitude;pressure_sealevel;temperature;humidity
64200;BME280;50516;52.272;5.136;2022-07-17T00:00:17;102805.59;;;15.77;66.13
64200;BME280;50516;52.272;5.136;2022-07-17T00:02:42;102807.84;;;15.80;66.05
64200;BME280;50516;52.272;5.136;2022-07-17T00:05:08;102802.22;;;15.75;66.34
64200;BME280;50516;52.272;5.136;2022-07-17T00:07:34;102802.22;;;15.75;66.30
64200;BME280;50516;52.272;5.136;2022-07-17T00:09:59;102797.19;;;15.72;66.36
64200;BME280;50516;52.272;5.136;2022-07-17T00:12:25;102797.41;;;15.65;66.75
64200;BME280;50516;52.272;5.136;2022-07-17T00:14:50;102797.91;;;15.62;66.89
64200;BME280;50516;52.272;5.136;2022-07-17T00:17:15;102792.00;;;15.54;66.97
64200;BME280;50516;52.272;5.136;2022-07-17T00:19:41;102796.13;;;15.51;67.03
64200;BME280;50516;52.272;5.136;2022-07-17T00:22:07;102804.69;;;15.49;67.34
64200;BME280;50516;52.272;5.136;2022-07-17T00:24:32;102799.34;;;15.43;67.65
64200;BME280;50516;52.272;5.136;2022-07-17T00:26:59;102799.03;;;15.39;67.46
64200;BME280;50516;52.272;5.136;2022-07-17T00:29:24;102791.59;;;15.45;67.21
64200;BME280;50516;52.272;5.136;2022-07-17T00:31:50;102787.69;;;15.41;67.56
64200;BME280;50516;52.272;5.136;2022-07-17T00:34:16;102795.66;;;15.37;67.63
64200;BME280;50516;52.272;5.136;2022-07-17T00:36:41;102796.78;;;15.36;67.33
64200;BME280;50516;52.272;5.136;2022-07-17T00:39:08;102794.25;;;15.34;67.27
64200;BME280;50516;52.272;5.136;2022-07-17T00:41:33;102794.34;;;15.23;67.60
64200;BME280;50516;52.272;5.136;2022-07-17T00:44:06;102797.72;;;15.25;67.68
64200;BME280;50516;52.272;5.136;2022-07-17T00:46:32;102795.22;;;15.23;67.72
64200;BME280;50516;52.272;5.136;2022-07-17T00:48:57;102796.88;;;15.24;67.75
64200;BME280;50516;52.272;5.136;2022-07-17T00:51:23;102797.91;;;15.18;67.71
64200;BME280;50516;52.272;5.136;2022-07-17T00:53:49;102800.94;;;15.17;67.70
64200;BME280;50516;52.272;5.136;2022-07-17T00:56:16;102799.81;;;15.18;67.94
64200;BME280;50516;52.272;5.136;2022-07-17T00:58:42;102809.16;;;15.11;67.87
64200;BME280;50516;52.272;5.136;2022-07-17T01:01:09;102805.03;;;15.14;67.61
64200;BME280;50516;52.272;5.136;2022-07-17T01:03:34;102809.50;;;15.15;67.44
64200;BME280;50516;52.272;5.136;2022-07-17T01:06:00;102791.97;;;15.09;67.72
64200;BME280;50516;52.272;5.136;2022-07-17T01:08:26;102792.53;;;15.11;67.83
64200;BME280;50516;52.272;5.136;2022-07-17T01:10:51;102789.78;;;15.11;67.55
64200;BME280;50516;52.272;5.136;2022-07-17T01:13:17;102792.22;;;15.08;67.82
64200;BME280;50516;52.272;5.136;2022-07-17T01:15:43;102796.25;;;15.00;67.77
64200;BME280;50516;52.272;5.136;2022-07-17T01:18:11;102793.50;;;15.00;67.71
64200;BME280;50516;52.272;5.136;2022-07-17T01:20:39;102787.72;;;15.02;67.54
64200;BME280;50516;52.272;5.136;2022-07-17T01:23:05;102787.38;;;14.98;67.66
64200;BME280;50516;52.272;5.136;2022-07-17T01:25:31;102787.88;;;14.95;67.79
64200;BME280;50516;52.272;5.136;2022-07-17T01:27:57;102785.38;;;14.93;67.77
64200;BME280;50516;52.272;5.136;2022-07-17T01:30:23;102781.22;;;14.91;67.75
64200;BME280;50516;52.272;5.136;2022-07-17T01:32:48;102774.00;;;14.90;67.52
64200;BME280;50516;52.272;5.136;2022-07-17T01:35:15;102773.16;;;14.89;67.69
64200;BME280;50516;52.272;5.136;2022-07-17T01:37:42;102777.84;;;14.89;67.58
64200;BME280;50516;52.272;5.136;2022-07-17T01:40:10;102779.47;;;14.85;67.64
64200;BME280;50516;52.272;5.136;2022-07-17T01:42:38;102781.91;;;14.81;67.71
64200;BME280;50516;52.272;5.136;2022-07-17T01:45:05;102783.22;;;14.78;67.82
64200;BME280;50516;52.272;5.136;2022-07-17T01:47:30;102784.84;;;14.74;67.87
64200;BME280;50516;52.272;5.136;2022-07-17T01:49:57;102785.94;;;14.73;67.79
64200;BME280;50516;52.272;5.136;2022-07-17T01:52:24;102785.25;;;14.66;68.02
64200;BME280;50516;52.272;5.136;2022-07-17T01:54:51;102782.47;;;14.66;68.04
64200;BME280;50516;52.272;5.136;2022-07-17T01:57:16;102773.09;;;14.67;67.81
64200;BME280;50516;52.272;5.136;2022-07-17T01:59:41;102782.22;;;14.68;67.76
64200;BME280;50516;52.272;5.136;2022-07-17T02:02:08;102780.56;;;14.67;68.07
64200;BME280;50516;52.272;5.136;2022-07-17T02:04:37;102783.59;;;14.65;67.84
64200;BME280;50516;52.272;5.136;2022-07-17T02:07:03;102790.09;;;14.59;68.04
64200;BME280;50516;52.272;5.136;2022-07-17T02:09:29;102773.50;;;14.59;68.18
64200;BME280;50516;52.272;5.136;2022-07-17T02:11:54;102795.03;;;14.57;68.49
64200;BME280;50516;52.272;5.136;2022-07-17T02:14:19;102791.59;;;14.50;68.61
64200;BME280;50516;52.272;5.136;2022-07-17T02:16:45;102783.22;;;14.45;68.60
64200;BME280;50516;52.272;5.136;2022-07-17T02:19:10;102787.41;;;14.47;68.57
64200;BME280;50516;52.272;5.136;2022-07-17T02:21:36;102796.03;;;14.51;68.34
64200;BME280;50516;52.272;5.136;2022-07-17T02:24:02;102789.94;;;14.49;68.33
64200;BME280;50516;52.272;5.136;2022-07-17T02:26:27;102792.59;;;14.43;68.43
64200;BME280;50516;52.272;5.136;2022-07-17T02:28:53;102798.13;;;14.43;68.77
64200;BME280;50516;52.272;5.136;2022-07-17T02:31:19;102800.31;;;14.41;68.76
64200;BME280;50516;52.272;5.136;2022-07-17T02:33:44;102794.94;;;14.35;68.68
64200;BME280;50516;52.272;5.136;2022-07-17T02:36:10;102795.78;;;14.35;68.61
64200;BME280;50516;52.272;5.136;2022-07-17T02:38:35;102786.41;;;14.36;68.56
64200;BME280;50516;52.272;5.136;2022-07-17T02:41:01;102784.97;;;14.34;68.69
64200;BME280;50516;52.272;5.136;2022-07-17T02:43:26;102786.16;;;14.38;68.47
64200;BME280;50516;52.272;5.136;2022-07-17T02:45:51;102786.91;;;14.33;68.44
64200;BME280;50516;52.272;5.136;2022-07-17T02:48:17;102784.13;;;14.33;68.57
64200;BME280;50516;52.272;5.136;2022-07-17T02:50:42;102782.44;;;14.32;68.68
64200;BME280;50516;52.272;5.136;2022-07-17T02:53:07;102780.53;;;14.33;68.47
64200;BME280;50516;52.272;5.136;2022-07-17T02:55:33;102776.00;;;14.27;68.69
64200;BME280;50516;52.272;5.136;2022-07-17T02:57:58;102782.63;;;14.25;68.89
64200;BME280;50516;52.272;5.136;2022-07-17T03:00:24;102793.59;;;14.20;69.24
64200;BME280;50516;52.272;5.136;2022-07-17T03:02:52;102791.41;;;14.22;69.11
64200;BME280;50516;52.272;5.136;2022-07-17T03:05:18;102797.19;;;14.21;69.20
64200;BME280;50516;52.272;5.136;2022-07-17T03:07:44;102793.59;;;14.20;69.47
64200;BME280;50516;52.272;5.136;2022-07-17T03:10:10;102806.66;;;14.25;69.46
64200;BME280;50516;52.272;5.136;2022-07-17T03:12:35;102807.72;;;14.24;69.66
64200;BME280;50516;52.272;5.136;2022-07-17T03:15:01;102798.13;;;14.27;69.39
64200;BME280;50516;52.272;5.136;2022-07-17T03:17:26;102789.50;;;14.23;69.20
64200;BME280;50516;52.272;5.136;2022-07-17T03:19:52;102796.59;;;14.19;69.39
64200;BME280;50516;52.272;5.136;2022-07-17T03:22:17;102797.88;;;14.28;69.36
64200;BME280;50516;52.272;5.136;2022-07-17T03:24:43;102804.47;;;14.27;69.51
64200;BME280;50516;52.272;5.136;2022-07-17T03:27:08;102793.41;;;14.27;69.45
64200;BME280;50516;52.272;5.136;2022-07-17T03:29:33;102786.56;;;14.30;69.23
64200;BME280;50516;52.272;5.136;2022-07-17T03:31:59;102797.38;;;14.31;69.31
64200;BME280;50516;52.272;5.136;2022-07-17T03:34:24;102797.94;;;14.33;69.46
64200;BME280;50516;52.272;5.136;2022-07-17T03:36:50;102801.53;;;14.34;69.67
64200;BME280;50516;52.272;5.136;2022-07-17T03:39:16;102795.19;;;14.33;69.64
64200;BME280;50516;52.272;5.136;2022-07-17T03:41:41;102808.69;;;14.30;70.01
64200;BME280;50516;52.272;5.136;2022-07-17T03:44:06;102804.63;;;14.20;70.12
64200;BME280;50516;52.272;5.136;2022-07-17T03:46:32;102804.16;;;14.23;70.10
64200;BME280;50516;52.272;5.136;2022-07-17T03:48:57;102804.97;;;14.24;69.85
64200;BME280;50516;52.272;5.136;2022-07-17T03:51:23;102808.59;;;14.24;69.98
64200;BME280;50516;52.272;5.136;2022-07-17T03:53:48;102805.59;;;14.26;70.00
64200;BME280;50516;52.272;5.136;2022-07-17T03:56:14;102808.47;;;14.19;70.08
64200;BME280;50516;52.272;5.136;2022-07-17T03:58:39;102813.50;;;14.22;70.08
64200;BME280;50516;52.272;5.136;2022-07-17T04:01:05;102812.09;;;14.20;70.00
64200;BME280;50516;52.272;5.136;2022-07-17T04:03:30;102814.38;;;14.23;69.98
64200;BME280;50516;52.272;5.136;2022-07-17T04:05:55;102824.06;;;14.25;70.02
64200;BME280;50516;52.272;5.136;2022-07-17T04:08:21;102824.22;;;14.19;69.94
64200;BME280;50516;52.272;5.136;2022-07-17T04:10:46;102819.81;;;14.18;70.04
64200;BME280;50516;52.272;5.136;2022-07-17T04:13:12;102817.13;;;14.23;69.87
64200;BME280;50516;52.272;5.136;2022-07-17T04:15:37;102814.13;;;14.24;69.70
64200;BME280;50516;52.272;5.136;2022-07-17T04:18:19;102819.41;;;14.26;69.45
64200;BME280;50516;52.272;5.136;2022-07-17T04:20:44;102819.97;;;14.28;69.48
64200;BME280;50516;52.272;5.136;2022-07-17T04:23:10;102822.25;;;14.31;69.25
64200;BME280;50516;52.272;5.136;2022-07-17T04:25:36;102819.72;;;14.30;69.29
64200;BME280;50516;52.272;5.136;2022-07-17T04:28:01;102827.28;;;14.34;69.26
64200;BME280;50516;52.272;5.136;2022-07-17T04:30:27;102836.16;;;14.36;69.08
64200;BME280;50516;52.272;5.136;2022-07-17T04:32:52;102830.53;;;14.48;68.70
64200;BME280;50516;52.272;5.136;2022-07-17T04:35:17;102830.66;;;14.70;68.31
64200;BME280;50516;52.272;5.136;2022-07-17T04:37:43;102824.38;;;14.75;68.15
64200;BME280;50516;52.272;5.136;2022-07-17T04:40:09;102812.25;;;14.76;68.00
64200;BME280;50516;52.272;5.136;2022-07-17T04:42:35;102806.81;;;15.03;67.18
64200;BME280;50516;52.272;5.136;2022-07-17T04:45:00;102802.16;;;15.26;66.17
64200;BME280;50516;52.272;5.136;2022-07-17T04:47:26;102794.56;;;15.38;66.25
64200;BME280;50516;52.272;5.136;2022-07-17T04:49:51;102807.03;;;15.63;65.22
64200;BME280;50516;52.272;5.136;2022-07-17T04:52:16;102799.84;;;15.84;64.26
64200;BME280;50516;52.272;5.136;2022-07-17T04:54:41;102796.41;;;15.99;63.45
64200;BME280;50516;52.272;5.136;2022-07-17T04:57:07;102800.38;;;16.08;63.34
64200;BME280;50516;52.272;5.136;2022-07-17T04:59:32;102797.97;;;16.17;63.74
64200;BME280;50516;52.272;5.136;2022-07-17T05:01:58;102797.22;;;16.27;63.58
64200;BME280;50516;52.272;5.136;2022-07-17T05:04:23;102794.56;;;16.42;63.04
64200;BME280;50516;52.272;5.136;2022-07-17T05:06:49;102787.31;;;16.68;62.48
64200;BME280;50516;52.272;5.136;2022-07-17T05:09:15;102787.19;;;16.90;61.44
64200;BME280;50516;52.272;5.136;2022-07-17T05:11:40;102787.31;;;17.11;60.76
64200;BME280;50516;52.272;5.136;2022-07-17T05:14:05;102781.25;;;17.19;60.24
64200;BME280;50516;52.272;5.136;2022-07-17T05:16:31;102773.06;;;16.97;60.82
64200;BME280;50516;52.272;5.136;2022-07-17T05:18:56;102787.94;;;17.23;60.60
64200;BME280;50516;52.272;5.136;2022-07-17T05:21:22;102794.31;;;17.19;60.30
64200;BME280;50516;52.272;5.136;2022-07-17T05:23:47;102787.31;;;17.06;61.02
64200;BME280;50516;52.272;5.136;2022-07-17T05:26:12;102788.59;;;16.88;60.81
64200;BME280;50516;52.272;5.136;2022-07-17T05:28:37;102791.47;;;16.71;61.24
64200;BME280;50516;52.272;5.136;2022-07-17T05:31:03;102807.56;;;16.69;60.85
64200;BME280;50516;52.272;5.136;2022-07-17T05:33:28;102801.72;;;17.08;60.21
64200;BME280;50516;52.272;5.136;2022-07-17T05:35:54;102800.81;;;17.45;59.49
64200;BME280;50516;52.272;5.136;2022-07-17T05:38:19;102796.16;;;17.66;58.44
64200;BME280;50516;52.272;5.136;2022-07-17T05:40:45;102803.00;;;17.38;58.26
64200;BME280;50516;52.272;5.136;2022-07-17T05:43:10;102806.31;;;17.34;58.64
64200;BME280;50516;52.272;5.136;2022-07-17T05:45:36;102809.66;;;17.37;58.11
64200;BME280;50516;52.272;5.136;2022-07-17T05:48:01;102816.44;;;17.66;58.05
64200;BME280;50516;52.272;5.136;2022-07-17T05:50:27;102820.44;;;17.91;57.52
64200;BME280;50516;52.272;5.136;2022-07-17T05:52:52;102815.75;;;18.17;56.68
64200;BME280;50516;52.272;5.136;2022-07-17T05:55:17;102819.41;;;18.43;55.97
64200;BME280;50516;52.272;5.136;2022-07-17T05:57:43;102816.91;;;18.57;55.49
64200;BME280;50516;52.272;5.136;2022-07-17T06:00:09;102837.47;;;18.61;55.12
64200;BME280;50516;52.272;5.136;2022-07-17T06:02:35;102841.38;;;18.71;55.58
64200;BME280;50516;52.272;5.136;2022-07-17T06:05:00;102852.25;;;18.93;54.56
64200;BME280;50516;52.272;5.136;2022-07-17T06:07:26;102841.66;;;18.95;55.00
64200;BME280;50516;52.272;5.136;2022-07-17T06:09:51;102854.97;;;19.13;54.70
64200;BME280;50516;52.272;5.136;2022-07-17T06:12:17;102851.66;;;18.91;53.78
64200;BME280;50516;52.272;5.136;2022-07-17T06:14:42;102849.97;;;19.15;54.32
64200;BME280;50516;52.272;5.136;2022-07-17T06:17:08;102845.19;;;19.31;53.87
64200;BME280;50516;52.272;5.136;2022-07-17T06:19:33;102859.38;;;19.35;54.10
64200;BME280;50516;52.272;5.136;2022-07-17T06:21:58;102855.78;;;19.29;52.89
64200;BME280;50516;52.272;5.136;2022-07-17T06:24:24;102862.97;;;19.51;53.37
64200;BME280;50516;52.272;5.136;2022-07-17T06:26:49;102860.09;;;19.66;52.74
64200;BME280;50516;52.272;5.136;2022-07-17T06:29:16;102860.34;;;19.75;52.92
64200;BME280;50516;52.272;5.136;2022-07-17T06:31:41;102858.44;;;19.65;52.35
64200;BME280;50516;52.272;5.136;2022-07-17T06:34:06;102872.66;;;19.64;52.38
64200;BME280;50516;52.272;5.136;2022-07-17T06:36:32;102864.53;;;19.73;52.61
64200;BME280;50516;52.272;5.136;2022-07-17T06:38:57;102874.88;;;19.77;52.65
64200;BME280;50516;52.272;5.136;2022-07-17T06:41:22;102883.31;;;20.12;52.58
64200;BME280;50516;52.272;5.136;2022-07-17T06:43:48;102879.16;;;20.09;50.84
64200;BME280;50516;52.272;5.136;2022-07-17T06:46:13;102869.50;;;19.91;51.01
64200;BME280;50516;52.272;5.136;2022-07-17T06:48:38;102874.19;;;19.96;51.90
64200;BME280;50516;52.272;5.136;2022-07-17T06:51:04;102864.00;;;20.25;50.86
64200;BME280;50516;52.272;5.136;2022-07-17T06:53:29;102865.69;;;20.21;50.44
64200;BME280;50516;52.272;5.136;2022-07-17T06:55:54;102858.38;;;20.31;50.37
64200;BME280;50516;52.272;5.136;2022-07-17T06:58:20;102862.28;;;20.30;50.00
64200;BME280;50516;52.272;5.136;2022-07-17T07:00:45;102857.13;;;20.47;49.76
64200;BME280;50516;52.272;5.136;2022-07-17T07:03:10;102869.97;;;20.48;49.37
64200;BME280;50516;52.272;5.136;2022-07-17T07:05:36;102870.75;;;20.54;49.78
64200;BME280;50516;52.272;5.136;2022-07-17T07:08:01;102860.63;;;20.63;49.40
64200;BME280;50516;52.272;5.136;2022-07-17T07:10:27;102853.69;;;20.66;49.03
64200;BME280;50516;52.272;5.136;2022-07-17T07:12:53;102855.84;;;20.74;49.46
64200;BME280;50516;52.272;5.136;2022-07-17T07:15:18;102854.03;;;20.88;49.45
64200;BME280;50516;52.272;5.136;2022-07-17T07:17:44;102856.13;;;20.72;50.00
64200;BME280;50516;52.272;5.136;2022-07-17T07:20:10;102853.34;;;20.72;49.49
64200;BME280;50516;52.272;5.136;2022-07-17T07:22:35;102862.25;;;20.74;49.71
64200;BME280;50516;52.272;5.136;2022-07-17T07:25:02;102864.69;;;21.10;49.83
64200;BME280;50516;52.272;5.136;2022-07-17T07:27:27;102860.94;;;21.20;49.86
64200;BME280;50516;52.272;5.136;2022-07-17T07:29:52;102863.28;;;21.13;49.35
64200;BME280;50516;52.272;5.136;2022-07-17T07:32:18;102862.22;;;21.33;49.75
64200;BME280;50516;52.272;5.136;2022-07-17T07:34:43;102867.09;;;21.46;49.30
64200;BME280;50516;52.272;5.136;2022-07-17T07:37:08;102869.88;;;21.51;48.52
64200;BME280;50516;52.272;5.136;2022-07-17T07:39:34;102869.25;;;21.30;50.02
64200;BME280;50516;52.272;5.136;2022-07-17T07:41:59;102871.19;;;21.59;49.09
64200;BME280;50516;52.272;5.136;2022-07-17T07:44:25;102871.78;;;21.56;48.54
64200;BME280;50516;52.272;5.136;2022-07-17T07:46:50;102867.00;;;21.57;48.62
64200;BME280;50516;52.272;5.136;2022-07-17T07:49:16;102873.59;;;21.66;48.88
64200;BME280;50516;52.272;5.136;2022-07-17T07:51:42;102866.78;;;21.53;47.78
64200;BME280;50516;52.272;5.136;2022-07-17T07:54:07;102862.31;;;21.95;47.90
64200;BME280;50516;52.272;5.136;2022-07-17T07:56:33;102860.84;;;21.98;48.19
64200;BME280;50516;52.272;5.136;2022-07-17T07:58:58;102857.75;;;21.99;46.57
64200;BME280;50516;52.272;5.136;2022-07-17T08:01:24;102868.66;;;21.82;47.59
64200;BME280;50516;52.272;5.136;2022-07-17T08:03:49;102858.97;;;22.12;47.36
64200;BME280;50516;52.272;5.136;2022-07-17T08:06:15;102859.91;;;22.08;46.35
64200;BME280;50516;52.272;5.136;2022-07-17T08:08:40;102852.16;;;21.99;46.36
64200;BME280;50516;52.272;5.136;2022-07-17T08:11:06;102851.66;;;22.16;46.63
64200;BME280;50516;52.272;5.136;2022-07-17T08:13:31;102844.69;;;22.52;45.70
64200;BME280;50516;52.272;5.136;2022-07-17T08:15:57;102848.72;;;22.08;47.04
64200;BME280;50516;52.272;5.136;2022-07-17T08:18:24;102849.28;;;22.23;45.44
64200;BME280;50516;52.272;5.136;2022-07-17T08:20:51;102849.69;;;22.69;45.37
64200;BME280;50516;52.272;5.136;2022-07-17T08:23:17;102857.19;;;22.73;44.26
64200;BME280;50516;52.272;5.136;2022-07-17T08:25:42;102850.47;;;22.41;44.17
64200;BME280;50516;52.272;5.136;2022-07-17T08:28:09;102848.16;;;22.24;44.12
64200;BME280;50516;52.272;5.136;2022-07-17T08:30:35;102853.53;;;22.02;44.20
64200;BME280;50516;52.272;5.136;2022-07-17T08:33:05;102850.97;;;22.63;44.19
64200;BME280;50516;52.272;5.136;2022-07-17T08:35:33;102856.72;;;22.33;44.77
64200;BME280;50516;52.272;5.136;2022-07-17T08:37:58;102856.16;;;22.83;44.08
64200;BME280;50516;52.272;5.136;2022-07-17T08:40:30;102845.38;;;23.09;44.18
64200;BME280;50516;52.272;5.136;2022-07-17T08:42:57;102842.81;;;22.94;44.83
64200;BME280;50516;52.272;5.136;2022-07-17T08:45:23;102852.34;;;22.79;44.58
64200;BME280;50516;52.272;5.136;2022-07-17T08:47:53;102862.31;;;22.52;45.64
64200;BME280;50516;52.272;5.136;2022-07-17T08:50:31;102855.16;;;22.79;44.82
64200;BME280;50516;52.272;5.136;2022-07-17T08:52:57;102844.28;;;23.05;44.41
64200;BME280;50516;52.272;5.136;2022-07-17T08:55:23;102847.03;;;23.10;44.87
64200;BME280;50516;52.272;5.136;2022-07-17T08:57:49;102853.81;;;22.90;43.84
64200;BME280;50516;52.272;5.136;2022-07-17T09:00:16;102838.31;;;23.12;44.52
64200;BME280;50516;52.272;5.136;2022-07-17T09:05:31;102852.75;;;22.72;44.24
64200;BME280;50516;52.272;5.136;2022-07-17T09:07:57;102843.97;;;22.60;44.14
64200;BME280;50516;52.272;5.136;2022-07-17T09:10:31;102847.00;;;22.96;43.84
64200;BME280;50516;52.272;5.136;2022-07-17T09:12:58;102843.72;;;23.08;44.02
64200;BME280;50516;52.272;5.136;2022-07-17T09:15:23;102844.13;;;23.15;43.97
64200;BME280;50516;52.272;5.136;2022-07-17T09:17:53;102831.25;;;23.42;43.26
64200;BME280;50516;52.272;5.136;2022-07-17T09:20:19;102831.53;;;23.68;42.70
64200;BME280;50516;52.272;5.136;2022-07-17T09:22:55;102828.31;;;23.89;42.87
64200;BME280;50516;52.272;5.136;2022-07-17T09:25:30;102834.66;;;24.17;42.35
64200;BME280;50516;52.272;5.136;2022-07-17T09:27:56;102820.28;;;23.96;43.19
64200;BME280;50516;52.272;5.136;2022-07-17T09:30:22;102831.72;;;24.00;43.50
64200;BME280;50516;52.272;5.136;2022-07-17T09:32:48;102830.25;;;24.25;41.49
64200;BME280;50516;52.272;5.136;2022-07-17T09:35:14;102834.09;;;24.06;42.25
64200;BME280;50516;52.272;5.136;2022-07-17T09:37:40;102841.56;;;24.11;42.03
64200;BME280;50516;52.272;5.136;2022-07-17T09:40:10;102843.22;;;24.35;41.06
64200;BME280;50516;52.272;5.136;2022-07-17T09:42:36;102845.13;;;24.03;42.35
64200;BME280;50516;52.272;5.136;2022-07-17T09:45:05;102832.34;;;23.97;42.19
64200;BME280;50516;52.272;5.136;2022-07-17T09:47:34;102831.63;;;23.91;41.61
64200;BME280;50516;52.272;5.136;2022-07-17T09:50:02;102837.75;;;23.79;41.26
64200;BME280;50516;52.272;5.136;2022-07-17T09:52:32;102830.38;;;23.97;41.86
64200;BME280;50516;52.272;5.136;2022-07-17T09:54:58;102836.72;;;24.26;41.72
64200;BME280;50516;52.272;5.136;2022-07-17T09:57:27;102835.06;;;24.70;40.62
64200;BME280;50516;52.272;5.136;2022-07-17T09:59:54;102832.88;;;24.89;39.86
64200;BME280;50516;52.272;5.136;2022-07-17T10:02:21;102832.97;;;25.07;40.31
64200;BME280;50516;52.272;5.136;2022-07-17T10:04:47;102835.50;;;24.40;40.40
64200;BME280;50516;52.272;5.136;2022-07-17T10:07:13;102838.50;;;24.44;40.31
64200;BME280;50516;52.272;5.136;2022-07-17T10:09:39;102837.03;;;24.24;41.51
64200;BME280;50516;52.272;5.136;2022-07-17T10:12:06;102824.72;;;24.11;40.45
64200;BME280;50516;52.272;5.136;2022-07-17T10:14:32;102824.16;;;23.86;41.73
64200;BME280;50516;52.272;5.136;2022-07-17T10:17:11;102816.09;;;24.53;41.24
64200;BME280;50516;52.272;5.136;2022-07-17T10:22:11;102827.41;;;24.39;42.01
64200;BME280;50516;52.272;5.136;2022-07-17T10:24:48;102837.94;;;24.56;41.34
64200;BME280;50516;52.272;5.136;2022-07-17T10:27:25;102830.25;;;24.02;41.19
64200;BME280;50516;52.272;5.136;2022-07-17T10:30:03;102828.53;;;23.65;41.32
64200;BME280;50516;52.272;5.136;2022-07-17T10:32:29;102838.50;;;23.71;41.43
64200;BME280;50516;52.272;5.136;2022-07-17T10:35:01;102839.66;;;23.42;41.73
64200;BME280;50516;52.272;5.136;2022-07-17T10:37:31;102841.13;;;23.67;41.69
64200;BME280;50516;52.272;5.136;2022-07-17T10:40:15;102836.44;;;23.35;41.99
64200;BME280;50516;52.272;5.136;2022-07-17T10:45:14;102839.09;;;23.82;40.40
64200;BME280;50516;52.272;5.136;2022-07-17T10:47:50;102837.19;;;23.55;40.69
64200;BME280;50516;52.272;5.136;2022-07-17T10:50:16;102831.34;;;23.65;41.54
64200;BME280;50516;52.272;5.136;2022-07-17T10:52:42;102834.56;;;23.58;40.90
64200;BME280;50516;52.272;5.136;2022-07-17T10:55:19;102837.88;;;23.74;40.09
64200;BME280;50516;52.272;5.136;2022-07-17T10:57:45;102838.66;;;24.02;40.54
64200;BME280;50516;52.272;5.136;2022-07-17T11:00:12;102835.34;;;24.00;40.28
64200;BME280;50516;52.272;5.136;2022-07-17T11:02:38;102830.25;;;24.25;39.62
64200;BME280;50516;52.272;5.136;2022-07-17T11:05:08;102841.25;;;24.13;39.50
64200;BME280;50516;52.272;5.136;2022-07-17T11:07:33;102850.47;;;24.13;39.40
64200;BME280;50516;52.272;5.136;2022-07-17T11:09:59;102848.56;;;24.00;39.73
64200;BME280;50516;52.272;5.136;2022-07-17T11:12:34;102850.25;;;24.69;39.04
64200;BME280;50516;52.272;5.136;2022-07-17T11:15:00;102849.88;;;24.84;38.98
64200;BME280;50516;52.272;5.136;2022-07-17T11:17:26;102845.78;;;24.45;40.02
64200;BME280;50516;52.272;5.136;2022-07-17T11:19:52;102843.25;;;24.57;39.62
64200;BME280;50516;52.272;5.136;2022-07-17T11:22:23;102846.28;;;24.47;39.36
64200;BME280;50516;52.272;5.136;2022-07-17T11:24:54;102844.16;;;24.67;39.24
64200;BME280;50516;52.272;5.136;2022-07-17T11:27:29;102848.28;;;24.24;40.18
64200;BME280;50516;52.272;5.136;2022-07-17T11:29:56;102844.44;;;24.20;39.78
64200;BME280;50516;52.272;5.136;2022-07-17T11:32:23;102850.19;;;24.37;39.64
64200;BME280;50516;52.272;5.136;2022-07-17T11:34:48;102841.69;;;24.29;39.30
64200;BME280;50516;52.272;5.136;2022-07-17T11:37:14;102847.84;;;24.53;39.66
64200;BME280;50516;52.272;5.136;2022-07-17T11:39:42;102846.16;;;24.52;39.43
64200;BME280;50516;52.272;5.136;2022-07-17T11:42:10;102830.91;;;24.67;39.01
64200;BME280;50516;52.272;5.136;2022-07-17T11:44:36;102829.75;;;24.59;38.52
64200;BME280;50516;52.272;5.136;2022-07-17T11:47:02;102835.72;;;24.98;39.12
64200;BME280;50516;52.272;5.136;2022-07-17T11:49:28;102836.75;;;24.71;39.32
64200;BME280;50516;52.272;5.136;2022-07-17T11:51:59;102836.00;;;24.56;38.02
64200;BME280;50516;52.272;5.136;2022-07-17T11:54:25;102838.81;;;24.56;38.73
64200;BME280;50516;52.272;5.136;2022-07-17T11:56:56;102843.63;;;24.42;39.17
64200;BME280;50516;52.272;5.136;2022-07-17T11:59:31;102835.63;;;25.12;38.66
64200;BME280;50516;52.272;5.136;2022-07-17T12:02:05;102831.38;;;25.23;37.80
64200;BME280;50516;52.272;5.136;2022-07-17T12:04:31;102832.59;;;25.31;38.40
64200;BME280;50516;52.272;5.136;2022-07-17T12:07:01;102823.25;;;25.22;37.79
64200;BME280;50516;52.272;5.136;2022-07-17T12:09:28;102810.75;;;25.28;37.34
64200;BME280;50516;52.272;5.136;2022-07-17T12:11:54;102811.47;;;25.11;37.77
64200;BME280;50516;52.272;5.136;2022-07-17T12:14:19;102815.06;;;25.03;39.08
64200;BME280;50516;52.272;5.136;2022-07-17T12:16:45;102810.44;;;24.67;36.95
64200;BME280;50516;52.272;5.136;2022-07-17T12:22:05;102807.34;;;24.77;36.99
64200;BME280;50516;52.272;5.136;2022-07-17T12:24:39;102808.88;;;24.83;35.94
64200;BME280;50516;52.272;5.136;2022-07-17T12:27:06;102809.38;;;24.85;36.28
64200;BME280;50516;52.272;5.136;2022-07-17T12:29:32;102811.03;;;24.86;36.32
64200;BME280;50516;52.272;5.136;2022-07-17T12:32:06;102799.22;;;25.56;35.54
64200;BME280;50516;52.272;5.136;2022-07-17T12:34:33;102797.75;;;25.76;35.08
64200;BME280;50516;52.272;5.136;2022-07-17T12:36:59;102804.38;;;25.88;34.59
64200;BME280;50516;52.272;5.136;2022-07-17T12:39:24;102797.28;;;25.65;33.96
64200;BME280;50516;52.272;5.136;2022-07-17T12:41:50;102793.22;;;25.31;35.10
64200;BME280;50516;52.272;5.136;2022-07-17T12:44:15;102794.25;;;25.04;35.83
64200;BME280;50516;52.272;5.136;2022-07-17T12:46:41;102804.13;;;24.92;36.46
64200;BME280;50516;52.272;5.136;2022-07-17T12:49:06;102798.50;;;24.92;36.96
64200;BME280;50516;52.272;5.136;2022-07-17T12:51:32;102803.75;;;24.85;37.40
64200;BME280;50516;52.272;5.136;2022-07-17T12:53:57;102802.75;;;24.81;37.04
64200;BME280;50516;52.272;5.136;2022-07-17T12:56:23;102805.09;;;24.88;36.20